Time;durP1;ratioP1;P1;durP2;ratioP2;P2;SDS_P1;SDS_P2;PMS_P1;PMS_P2;Temp;Humidity;BMP_temperature;BMP_pressure;BME280_temperature;BME280_humidity;BME280_pressure;Samples;Min_cycle;Max_cycle;Signal;HPM_P1;HPM_P2
2021/05/19 00:01:56;;;;;;;79.63;55.17;;;;;;;;;;5095912;28;20451;-55
2021/05/19 00:04:39;;;;;;;134.33;99.20;;;;;;;;;;5095848;28;20440;-55
2021/05/19 00:07:06;;;;;;;16.30;12.13;;;;;;;;;;5096387;28;20448;-56
2021/05/19 00:09:33;;;;;;;31.40;22.43;;;;;;;;;;5094996;28;20448;-59
2021/05/19 00:12:22;;;;;;;15.43;9.77;;;;;;;;;;5095762;28;20443;-52
2021/05/19 00:14:49;;;;;;;10.07;8.77;;;;;;;;;;5095442;28;20523;-56
2021/05/19 00:17:16;;;;;;;20.30;12.63;;;;;;;;;;5095887;28;20444;-60
2021/05/19 00:19:44;;;;;;;11.87;9.83;;;;;;;;;;5095450;28;20460;-57
2021/05/19 00:22:12;;;;;;;14.70;8.70;;;;;;;;;;5096151;28;20467;-60
2021/05/19 00:24:50;;;;;;;13.77;8.80;;;;;;;;;;5098966;28;20443;-58
2021/05/19 00:27:24;;;;;;;10.93;8.80;;;;;;;;;;5095931;28;20443;-58
2021/05/19 00:29:52;;;;;;;10.30;8.07;;;;;;;;;;5095000;28;20460;-59
2021/05/19 00:32:20;;;;;;;15.00;8.97;;;;;;;;;;5094842;28;20913;-56
2021/05/19 00:35:01;;;;;;;13.53;10.00;;;;;;;;;;5094551;28;20484;-52
2021/05/19 00:37:28;;;;;;;13.70;9.30;;;;;;;;;;5094979;28;20440;-58
2021/05/19 00:39:55;;;;;;;13.50;10.00;;;;;;;;;;5095104;28;20468;-54
2021/05/19 00:42:22;;;;;;;18.90;11.43;;;;;;;;;;5095139;28;20464;-60
2021/05/19 00:44:49;;;;;;;22.27;11.30;;;;;;;;;;5094712;28;20432;-59
2021/05/19 00:47:30;;;;;;;11.23;9.00;;;;;;;;;;5095351;28;20436;-54
2021/05/19 00:49:57;;;;;;;12.77;9.43;;;;;;;;;;5095352;28;20997;-56
2021/05/19 00:52:25;;;;;;;10.67;9.30;;;;;;;;;;5094619;28;20449;-59
2021/05/19 00:54:52;;;;;;;11.70;9.60;;;;;;;;;;5095440;28;20467;-58
2021/05/19 00:57:19;;;;;;;14.03;9.17;;;;;;;;;;5094412;28;20462;-57
2021/05/19 00:59:47;;;;;;;14.27;8.77;;;;;;;;;;5094747;28;20474;-58
2021/05/19 01:02:14;;;;;;;11.73;8.53;;;;;;;;;;5094966;28;20448;-59
2021/05/19 01:04:41;;;;;;;12.60;9.50;;;;;;;;;;5095615;28;20440;-54
2021/05/19 01:07:24;;;;;;;15.20;11.47;;;;;;;;;;5080029;28;20449;-59
2021/05/19 01:09:52;;;;;;;12.23;9.83;;;;;;;;;;5090207;28;20479;-58
2021/05/19 01:12:19;;;;;;;19.00;10.77;;;;;;;;;;5095544;28;20460;-56
2021/05/19 01:15:18;;;;;;;14.00;11.27;;;;;;;;;;5095179;28;20474;-54
2021/05/19 01:17:45;;;;;;;14.20;10.70;;;;;;;;;;5092819;28;20484;-55
2021/05/19 01:20:12;;;;;;;15.27;11.10;;;;;;;;;;5095058;28;20495;-54
2021/05/19 01:22:56;;;;;;;19.03;11.23;;;;;;;;;;5094941;28;20468;-59
2021/05/19 01:25:23;;;;;;;16.40;12.07;;;;;;;;;;5093005;28;20475;-59
2021/05/19 01:27:54;;;;;;;18.07;12.77;;;;;;;;;;5094787;28;20463;-57
2021/05/19 01:30:40;;;;;;;13.50;11.30;;;;;;;;;;5094868;28;20495;-59
2021/05/19 01:33:07;;;;;;;16.17;11.93;;;;;;;;;;5094956;28;20456;-56
2021/05/19 01:35:34;;;;;;;20.60;13.27;;;;;;;;;;5095415;28;20413;-56
2021/05/19 01:38:20;;;;;;;14.83;12.47;;;;;;;;;;5095273;28;20448;-56
2021/05/19 01:40:48;;;;;;;14.23;12.73;;;;;;;;;;5094118;28;20502;-59
2021/05/19 01:43:15;;;;;;;15.00;12.55;;;;;;;;;;5097406;28;20190;-56
2021/05/19 01:45:42;;;;;;;15.40;12.00;;;;;;;;;;5101034;28;20201;-56
2021/05/19 01:48:10;;;;;;;16.90;12.63;;;;;;;;;;5087001;28;20206;-59
2021/05/19 01:51:01;;;;;;;15.27;11.40;;;;;;;;;;5085759;28;20440;-57
2021/05/19 01:53:29;;;;;;;13.17;11.73;;;;;;;;;;5092178;28;20530;-62
2021/05/19 01:55:56;;;;;;;14.07;11.93;;;;;;;;;;5078080;28;20453;-59
2021/05/19 01:58:30;;;;;;;14.07;12.30;;;;;;;;;;5091561;28;20337;-55
2021/05/19 02:00:57;;;;;;;13.57;12.17;;;;;;;;;;5097760;28;20513;-55
2021/05/19 02:03:24;;;;;;;17.80;12.17;;;;;;;;;;5098185;28;20460;-59
2021/05/19 02:08:55;;;;;;;17.60;11.60;;;;;;;;;;5085986;28;20532;-55
2021/05/19 02:11:22;;;;;;;13.20;11.80;;;;;;;;;;5097922;28;20445;-50
2021/05/19 02:13:49;;;;;;;16.50;12.10;;;;;;;;;;5097876;28;20467;-58
2021/05/19 02:16:15;;;;;;;15.10;10.90;;;;;;;;;;5099674;28;20444;-53
2021/05/19 02:18:45;;;;;;;15.23;11.47;;;;;;;;;;5091724;28;20469;-60
2021/05/19 02:21:16;;;;;;;16.60;12.67;;;;;;;;;;5078067;28;20801;-59
2021/05/19 02:23:43;;;;;;;13.27;11.00;;;;;;;;;;5092077;28;20489;-56
2021/05/19 02:26:10;;;;;;;12.50;11.13;;;;;;;;;;5097973;28;20443;-60
2021/05/19 02:28:56;;;;;;;15.80;11.43;;;;;;;;;;5098099;28;20459;-60
2021/05/19 02:31:23;;;;;;;11.77;9.90;;;;;;;;;;5095556;28;20492;-60
2021/05/19 02:33:50;;;;;;;14.70;11.50;;;;;;;;;;5097505;28;20459;-57
2021/05/19 02:36:18;;;;;;;15.50;12.40;;;;;;;;;;5097251;28;20460;-55
2021/05/19 02:38:45;;;;;;;14.13;10.50;;;;;;;;;;5090654;28;20441;-54
2021/05/19 02:41:12;;;;;;;18.17;12.23;;;;;;;;;;5077571;28;20484;-60
2021/05/19 02:43:46;;;;;;;12.70;10.70;;;;;;;;;;5079662;28;20469;-59
2021/05/19 02:46:15;;;;;;;12.50;11.00;;;;;;;;;;5082767;28;20444;-53
2021/05/19 02:48:42;;;;;;;12.50;11.20;;;;;;;;;;5094791;28;20484;-57
2021/05/19 02:51:09;;;;;;;16.80;12.50;;;;;;;;;;5076795;28;20464;-60
2021/05/19 02:53:36;;;;;;;13.87;10.80;;;;;;;;;;5100694;28;20523;-61
2021/05/19 02:56:06;;;;;;;16.43;11.17;;;;;;;;;;5117369;28;20470;-62
2021/05/19 02:58:34;;;;;;;13.03;10.60;;;;;;;;;;5101849;28;20535;-57
2021/05/19 03:01:01;;;;;;;12.20;11.00;;;;;;;;;;5096940;28;20498;-57
2021/05/19 03:03:40;;;;;;;13.60;12.07;;;;;;;;;;5097058;28;20533;-54
2021/05/19 03:06:09;;;;;;;16.73;9.90;;;;;;;;;;5096406;28;20444;-58
2021/05/19 03:08:37;;;;;;;16.07;11.30;;;;;;;;;;5096200;28;20528;-53
2021/05/19 03:11:21;;;;;;;16.70;11.77;;;;;;;;;;5096475;28;20462;-57
2021/05/19 03:13:48;;;;;;;13.50;11.00;;;;;;;;;;5095986;28;20456;-57
2021/05/19 03:16:15;;;;;;;12.00;10.23;;;;;;;;;;5096079;28;20464;-52
2021/05/19 03:18:42;;;;;;;13.67;11.67;;;;;;;;;;5095513;28;20459;-58
2021/05/19 03:21:10;;;;;;;14.00;10.50;;;;;;;;;;5095618;28;20486;-56
2021/05/19 03:23:43;;;;;;;14.10;11.23;;;;;;;;;;5096259;28;20436;-59
2021/05/19 03:26:14;;;;;;;14.27;10.07;;;;;;;;;;5096062;28;20482;-57
2021/05/19 03:28:41;;;;;;;13.70;10.70;;;;;;;;;;5095087;28;20456;-59
2021/05/19 03:31:09;;;;;;;14.93;11.10;;;;;;;;;;5095962;28;20471;-56
2021/05/19 03:33:36;;;;;;;12.33;10.90;;;;;;;;;;5095935;28;20460;-55
2021/05/19 03:36:05;;;;;;;18.90;12.80;;;;;;;;;;5096199;28;20463;-58
2021/05/19 03:38:32;;;;;;;14.70;11.17;;;;;;;;;;5095945;28;20440;-58
2021/05/19 03:40:59;;;;;;;17.80;10.67;;;;;;;;;;5096005;28;20515;-54
2021/05/19 03:43:26;;;;;;;15.10;12.10;;;;;;;;;;5095891;28;20455;-53
2021/05/19 03:45:53;;;;;;;14.23;10.30;;;;;;;;;;5096148;28;20503;-60
2021/05/19 03:48:21;;;;;;;15.87;11.93;;;;;;;;;;5095430;28;20464;-59
2021/05/19 03:50:48;;;;;;;16.70;12.67;;;;;;;;;;5095187;28;20424;-60
2021/05/19 03:53:16;;;;;;;16.40;12.03;;;;;;;;;;5078120;28;20448;-57
2021/05/19 03:55:44;;;;;;;13.60;11.47;;;;;;;;;;5095884;28;20460;-56
2021/05/19 03:58:11;;;;;;;12.77;11.37;;;;;;;;;;5095318;28;20463;-59
2021/05/19 04:00:47;;;;;;;13.40;10.80;;;;;;;;;;5095644;28;20483;-54
2021/05/19 04:03:14;;;;;;;15.90;12.33;;;;;;;;;;5092813;28;20499;-54
2021/05/19 04:05:43;;;;;;;15.07;12.10;;;;;;;;;;5094774;28;20478;-58
2021/05/19 04:08:10;;;;;;;13.77;11.73;;;;;;;;;;5093806;28;21051;-57
2021/05/19 04:10:37;;;;;;;12.17;10.70;;;;;;;;;;5094863;28;20448;-55
2021/05/19 04:13:09;;;;;;;15.40;12.07;;;;;;;;;;5094501;28;20556;-59
2021/05/19 04:15:36;;;;;;;12.87;11.03;;;;;;;;;;5089659;28;20469;-56
2021/05/19 04:18:04;;;;;;;20.20;12.23;;;;;;;;;;5090587;28;20460;-59
2021/05/19 04:20:31;;;;;;;14.47;10.97;;;;;;;;;;5094274;28;20484;-64
2021/05/19 04:22:59;;;;;;;16.07;12.60;;;;;;;;;;5084613;28;20452;-49
2021/05/19 04:25:30;;;;;;;13.73;12.20;;;;;;;;;;5079138;28;20472;-55
2021/05/19 04:27:57;;;;;;;14.23;12.17;;;;;;;;;;5089053;28;20448;-57
2021/05/19 04:30:24;;;;;;;12.43;10.77;;;;;;;;;;5075025;28;20445;-60
2021/05/19 04:32:53;;;;;;;15.70;12.67;;;;;;;;;;5101848;28;20463;-55
2021/05/19 04:35:21;;;;;;;16.00;12.37;;;;;;;;;;5104482;28;20534;-56
2021/05/19 04:37:53;;;;;;;15.60;11.43;;;;;;;;;;5094838;28;20461;-61
2021/05/19 04:40:22;;;;;;;16.90;11.43;;;;;;;;;;5093161;28;20531;-61
2021/05/19 04:42:49;;;;;;;41.27;26.53;;;;;;;;;;5094262;28;20452;-50
2021/05/19 04:45:29;;;;;;;17.13;13.43;;;;;;;;;;5094407;28;20476;-57
2021/05/19 04:47:59;;;;;;;14.00;11.70;;;;;;;;;;5093733;28;20464;-55
2021/05/19 04:50:26;;;;;;;14.83;11.73;;;;;;;;;;5094216;28;20523;-53
2021/05/19 04:52:53;;;;;;;13.60;10.73;;;;;;;;;;5093467;28;20467;-57
2021/05/19 04:55:25;;;;;;;15.33;11.70;;;;;;;;;;5093937;28;20451;-58
2021/05/19 04:58:04;;;;;;;14.13;10.70;;;;;;;;;;5094715;28;20495;-59
2021/05/19 05:00:33;;;;;;;14.80;12.20;;;;;;;;;;5093732;28;20506;-56
2021/05/19 05:03:05;;;;;;;11.23;8.57;;;;;;;;;;5094085;28;20467;-52
2021/05/19 05:05:32;;;;;;;10.77;9.63;;;;;;;;;;5093447;28;20562;-58
2021/05/19 05:07:59;;;;;;;11.80;9.13;;;;;;;;;;5092984;28;20456;-61
2021/05/19 05:10:28;;;;;;;9.90;7.90;;;;;;;;;;5092945;28;20460;-57
2021/05/19 05:12:54;;;;;;;12.20;7.20;;;;;;;;;;5092767;28;20437;-58
2021/05/19 05:15:31;;;;;;;10.60;8.23;;;;;;;;;;5093021;28;20467;-59
2021/05/19 05:17:59;;;;;;;8.20;6.23;;;;;;;;;;5095039;28;20497;-58
2021/05/19 05:20:26;;;;;;;9.97;6.50;;;;;;;;;;5096963;28;20487;-62
2021/05/19 05:23:12;;;;;;;11.43;7.57;;;;;;;;;;5096845;28;20464;-60
2021/05/19 05:25:40;;;;;;;7.80;6.23;;;;;;;;;;5094466;28;20525;-55
2021/05/19 05:28:07;;;;;;;12.53;7.00;;;;;;;;;;5096771;28;20444;-59
2021/05/19 05:30:34;;;;;;;14.33;6.03;;;;;;;;;;5096296;28;20524;-63
2021/05/19 05:33:01;;;;;;;8.40;5.67;;;;;;;;;;5096281;28;20447;-63
2021/05/19 05:35:28;;;;;;;13.43;6.90;;;;;;;;;;5095668;28;20432;-57
2021/05/19 05:37:55;;;;;;;11.13;6.20;;;;;;;;;;5096158;28;20482;-57
2021/05/19 05:40:22;;;;;;;10.70;6.40;;;;;;;;;;5096338;28;20590;-55
2021/05/19 05:42:53;;;;;;;8.70;5.47;;;;;;;;;;5095844;28;20498;-61
2021/05/19 05:45:20;;;;;;;9.33;5.87;;;;;;;;;;5106251;28;20950;-61
2021/05/19 05:47:47;;;;;;;13.00;7.00;;;;;;;;;;5100196;28;20444;-59
2021/05/19 05:50:47;;;;;;;13.17;8.03;;;;;;;;;;5095258;28;20459;-60
2021/05/19 05:53:15;;;;;;;12.43;7.73;;;;;;;;;;5093861;28;20530;-63
2021/05/19 05:55:44;;;;;;;9.97;5.40;;;;;;;;;;5095578;28;20448;-57
2021/05/19 05:58:11;;;;;;;11.70;6.60;;;;;;;;;;5095167;28;20464;-59
2021/05/19 06:00:38;;;;;;;11.67;5.20;;;;;;;;;;5096129;28;20487;-56
2021/05/19 06:03:09;;;;;;;12.57;6.10;;;;;;;;;;5096434;28;20468;-57
2021/05/19 06:05:38;;;;;;;10.47;6.80;;;;;;;;;;5077618;28;20466;-56
2021/05/19 06:08:05;;;;;;;17.87;6.13;;;;;;;;;;5090715;28;20475;-57
2021/05/19 06:10:33;;;;;;;15.27;5.50;;;;;;;;;;5074149;28;20525;-61
2021/05/19 06:13:01;;;;;;;12.70;5.17;;;;;;;;;;5078069;28;20441;-55
2021/05/19 06:15:28;;;;;;;8.27;4.90;;;;;;;;;;5074848;28;20521;-56
2021/05/19 06:18:00;;;;;;;12.20;4.53;;;;;;;;;;5074687;28;20888;-55
2021/05/19 06:20:27;;;;;;;8.80;4.90;;;;;;;;;;5073713;28;20575;-61
2021/05/19 06:22:54;;;;;;;10.30;5.13;;;;;;;;;;5071283;28;20461;-61
2021/05/19 06:25:22;;;;;;;15.00;5.43;;;;;;;;;;5095252;28;20487;-55
2021/05/19 06:27:50;;;;;;;10.30;5.37;;;;;;;;;;5083923;28;20466;-54
2021/05/19 06:30:17;;;;;;;8.87;4.40;;;;;;;;;;5090548;28;20484;-62
2021/05/19 06:32:45;;;;;;;9.03;4.23;;;;;;;;;;5093454;28;20447;-55
2021/05/19 06:35:12;;;;;;;10.33;5.20;;;;;;;;;;5086297;28;20498;-58
2021/05/19 06:37:45;;;;;;;9.77;4.10;;;;;;;;;;5076055;28;20514;-62
2021/05/19 06:40:12;;;;;;;12.60;5.27;;;;;;;;;;5080087;28;20787;-60
2021/05/19 06:42:39;;;;;;;9.23;4.57;;;;;;;;;;5088083;28;20452;-59
2021/05/19 06:45:07;;;;;;;9.97;5.07;;;;;;;;;;5079275;28;20467;-56
2021/05/19 06:47:34;;;;;;;9.90;4.90;;;;;;;;;;5093466;28;20487;-60
2021/05/19 06:50:02;;;;;;;13.40;6.90;;;;;;;;;;5093539;28;20460;-57
2021/05/19 06:52:29;;;;;;;11.93;5.40;;;;;;;;;;5076703;28;20488;-48
2021/05/19 06:54:56;;;;;;;6.20;4.20;;;;;;;;;;5094976;28;20477;-60
2021/05/19 06:57:27;;;;;;;10.60;5.60;;;;;;;;;;5094293;28;20432;-56
2021/05/19 06:59:59;;;;;;;7.80;3.90;;;;;;;;;;5076024;28;20520;-63
2021/05/19 07:02:26;;;;;;;12.90;4.80;;;;;;;;;;5094588;28;20495;-54
2021/05/19 07:04:59;;;;;;;14.07;4.53;;;;;;;;;;5089755;28;20460;-61
2021/05/19 07:13:11;;;;;;;9.77;3.93;;;;;;;;;;5085097;28;20487;-57
2021/05/19 07:15:40;;;;;;;12.30;4.67;;;;;;;;;;5093707;28;20468;-59
2021/05/19 07:18:15;;;;;;;8.97;4.27;;;;;;;;;;5091739;28;20527;-54
2021/05/19 07:20:42;;;;;;;9.30;4.00;;;;;;;;;;5093151;28;20472;-60
2021/05/19 07:23:09;;;;;;;8.37;4.93;;;;;;;;;;5093539;28;20478;-56
2021/05/19 07:25:36;;;;;;;9.03;3.63;;;;;;;;;;5093424;28;20483;-57
2021/05/19 07:28:04;;;;;;;11.20;3.70;;;;;;;;;;5093889;28;20452;-58
2021/05/19 07:30:33;;;;;;;8.50;3.30;;;;;;;;;;5096502;28;20440;-55
2021/05/19 07:33:08;;;;;;;8.00;3.30;;;;;;;;;;5094088;28;20619;-60
2021/05/19 07:35:35;;;;;;;7.93;2.20;;;;;;;;;;5093649;28;20463;-54
2021/05/19 07:38:02;;;;;;;9.30;2.67;;;;;;;;;;5093553;28;20455;-57
2021/05/19 07:40:31;;;;;;;6.57;2.13;;;;;;;;;;5092560;28;20469;-57
2021/05/19 07:42:58;;;;;;;13.60;3.13;;;;;;;;;;5087789;28;20440;-62
2021/05/19 07:45:25;;;;;;;10.60;3.07;;;;;;;;;;5094152;28;20487;-53
2021/05/19 07:47:59;;;;;;;8.03;3.07;;;;;;;;;;5092709;28;20444;-53
2021/05/19 07:50:27;;;;;;;8.53;2.83;;;;;;;;;;5094511;28;20479;-61
2021/05/19 07:52:55;;;;;;;10.90;2.70;;;;;;;;;;5093797;28;20444;-57
2021/05/19 07:55:25;;;;;;;5.80;2.17;;;;;;;;;;5092011;28;20498;-61
2021/05/19 07:58:15;;;;;;;7.80;2.43;;;;;;;;;;5092003;28;20452;-55
2021/05/19 08:01:12;;;;;;;6.90;2.60;;;;;;;;;;5093159;28;20471;-52
2021/05/19 08:03:39;;;;;;;6.40;2.33;;;;;;;;;;5092662;28;20463;-59
2021/05/19 08:06:06;;;;;;;8.10;3.00;;;;;;;;;;5093568;28;20475;-55
2021/05/19 08:08:42;;;;;;;7.30;2.70;;;;;;;;;;5092261;28;20742;-57
2021/05/19 08:11:09;;;;;;;6.20;2.67;;;;;;;;;;5090653;28;20451;-59
2021/05/19 08:13:40;;;;;;;8.03;2.37;;;;;;;;;;5089329;28;20480;-62
2021/05/19 08:16:09;;;;;;;8.00;2.50;;;;;;;;;;5093272;28;20499;-52
2021/05/19 08:18:36;;;;;;;6.30;2.33;;;;;;;;;;5093230;28;20475;-61
2021/05/19 08:21:14;;;;;;;6.10;2.10;;;;;;;;;;5092884;28;20483;-59
2021/05/19 08:23:41;;;;;;;5.80;2.30;;;;;;;;;;5091880;28;20578;-60
2021/05/19 08:26:08;;;;;;;4.77;2.27;;;;;;;;;;5091535;28;20486;-57
2021/05/19 08:28:46;;;;;;;4.80;2.27;;;;;;;;;;5091170;28;20444;-60
2021/05/19 08:31:18;;;;;;;8.00;2.50;;;;;;;;;;5105703;28;20622;-56
2021/05/19 08:33:49;;;;;;;5.17;2.13;;;;;;;;;;5093186;28;20478;-57
2021/05/19 08:36:26;;;;;;;5.93;1.77;;;;;;;;;;5093666;28;20433;-59
2021/05/19 08:38:54;;;;;;;9.47;2.30;;;;;;;;;;5073336;28;20774;-58
2021/05/19 08:41:21;;;;;;;6.50;2.37;;;;;;;;;;5099198;28;20483;-52
2021/05/19 08:43:49;;;;;;;8.73;2.50;;;;;;;;;;5113507;28;20533;-55
2021/05/19 08:46:17;;;;;;;10.30;3.17;;;;;;;;;;5096850;28;20508;-55
2021/05/19 08:49:02;;;;;;;7.43;3.03;;;;;;;;;;5072928;28;20512;-54
2021/05/19 08:51:30;;;;;;;7.90;2.57;;;;;;;;;;5088240;28;20474;-52
2021/05/19 08:56:56;;;;;;;5.50;2.30;;;;;;;;;;5096342;28;20439;-56
2021/05/19 08:59:23;;;;;;;6.30;1.80;;;;;;;;;;5097898;28;20508;-58
2021/05/19 09:02:13;;;;;;;6.70;1.67;;;;;;;;;;5096567;28;20494;-55
2021/05/19 09:04:40;;;;;;;4.03;1.60;;;;;;;;;;5087332;28;20491;-59
2021/05/19 09:07:10;;;;;;;2.93;1.40;;;;;;;;;;5093987;28;20439;-57
2021/05/19 09:09:38;;;;;;;6.37;1.40;;;;;;;;;;5096810;28;20667;-58
2021/05/19 09:12:07;;;;;;;6.77;2.87;;;;;;;;;;5096610;28;20548;-58
2021/05/19 09:14:36;;;;;;;6.00;1.90;;;;;;;;;;5090752;28;20784;-57
2021/05/19 09:17:30;;;;;;;5.40;1.67;;;;;;;;;;5096891;28;20452;-60
2021/05/19 09:20:09;;;;;;;12.40;2.53;;;;;;;;;;5096865;28;20499;-57
2021/05/19 09:22:41;;;;;;;8.57;1.80;;;;;;;;;;5096547;28;20484;-59
2021/05/19 09:25:21;;;;;;;8.50;4.27;;;;;;;;;;5097099;28;20435;-58
2021/05/19 09:27:49;;;;;;;4.93;1.80;;;;;;;;;;5097684;28;20450;-61
2021/05/19 09:30:24;;;;;;;10.50;5.27;;;;;;;;;;5098151;28;20486;-63
2021/05/19 09:33:20;;;;;;;4.70;2.20;;;;;;;;;;5095997;28;20500;-59
2021/05/19 09:35:48;;;;;;;5.00;1.70;;;;;;;;;;5085693;28;20484;-57
2021/05/19 09:38:29;;;;;;;3.87;1.83;;;;;;;;;;5097078;28;20458;-62
2021/05/19 09:41:16;;;;;;;4.47;1.90;;;;;;;;;;5097593;28;20495;-58
2021/05/19 09:43:43;;;;;;;4.90;2.07;;;;;;;;;;5097161;28;20460;-53
2021/05/19 09:46:24;;;;;;;4.07;1.37;;;;;;;;;;5097507;28;20448;-54
2021/05/19 09:49:05;;;;;;;8.73;2.30;;;;;;;;;;5097010;28;20463;-59
2021/05/19 09:51:41;;;;;;;8.80;2.00;;;;;;;;;;5098394;28;20428;-61
2021/05/19 09:54:30;;;;;;;5.07;1.40;;;;;;;;;;5097343;28;20520;-61
2021/05/19 09:57:17;;;;;;;6.10;2.20;;;;;;;;;;5097885;28;20467;-61
2021/05/19 09:59:52;;;;;;;9.07;1.63;;;;;;;;;;5097917;28;20447;-56
2021/05/19 10:02:22;;;;;;;7.40;1.73;;;;;;;;;;5096983;28;20634;-57
2021/05/19 10:05:07;;;;;;;4.70;1.20;;;;;;;;;;5094331;28;20435;-59
2021/05/19 10:07:34;;;;;;;4.70;1.53;;;;;;;;;;5075080;28;20472;-59
2021/05/19 10:10:04;;;;;;;4.17;1.47;;;;;;;;;;5079255;28;20486;-55
2021/05/19 10:12:49;;;;;;;4.37;1.83;;;;;;;;;;5094750;28;20456;-61
2021/05/19 10:15:28;;;;;;;6.07;1.53;;;;;;;;;;5096638;28;20444;-55
2021/05/19 10:18:01;;;;;;;5.17;1.80;;;;;;;;;;5096085;28;20443;-57
2021/05/19 10:20:47;;;;;;;6.93;2.23;;;;;;;;;;5076717;28;20515;-62
2021/05/19 10:23:17;;;;;;;2.77;1.23;;;;;;;;;;5086032;28;20495;-56
2021/05/19 10:26:05;;;;;;;7.03;1.77;;;;;;;;;;5096556;28;20466;-61
2021/05/19 10:28:41;;;;;;;5.27;1.60;;;;;;;;;;5096219;28;20448;-58
2021/05/19 10:31:24;;;;;;;5.70;1.90;;;;;;;;;;5096556;28;20526;-59
2021/05/19 10:33:56;;;;;;;5.53;2.73;;;;;;;;;;5094658;28;20454;-62
2021/05/19 10:36:45;;;;;;;4.20;1.80;;;;;;;;;;5096470;28;20443;-60
2021/05/19 10:39:22;;;;;;;16.00;1.70;;;;;;;;;;5076185;28;20501;-57
2021/05/19 10:42:01;;;;;;;3.90;1.40;;;;;;;;;;5091824;28;20475;-56
2021/05/19 10:44:30;;;;;;;4.87;1.53;;;;;;;;;;5096356;28;20474;-56
2021/05/19 10:46:58;;;;;;;4.10;1.20;;;;;;;;;;5096382;28;20464;-59
2021/05/19 10:50:05;;;;;;;3.90;1.50;;;;;;;;;;5096651;28;20452;-54
2021/05/19 10:52:44;;;;;;;3.37;1.80;;;;;;;;;;5035202;28;20439;-58
2021/05/19 10:58:18;;;;;;;6.60;2.70;;;;;;;;;;5033681;28;20447;-59
2021/05/19 11:00:56;;;;;;;6.03;1.57;;;;;;;;;;5039324;28;20598;-62
2021/05/19 11:03:40;;;;;;;3.60;1.30;;;;;;;;;;5035251;28;20430;-54
2021/05/19 11:06:09;;;;;;;3.37;1.40;;;;;;;;;;5034893;28;20466;-55
2021/05/19 11:08:36;;;;;;;14.90;6.40;;;;;;;;;;5033410;28;20534;-59
2021/05/19 11:11:17;;;;;;;6.93;2.23;;;;;;;;;;5075490;28;20449;-54
2021/05/19 11:13:58;;;;;;;3.80;1.57;;;;;;;;;;5096205;28;20456;-54
2021/05/19 11:16:45;;;;;;;5.00;2.00;;;;;;;;;;5095344;28;20487;-61
2021/05/19 11:19:27;;;;;;;3.70;1.83;;;;;;;;;;5095979;28;20464;-59
2021/05/19 11:22:12;;;;;;;6.90;1.73;;;;;;;;;;5096637;28;20494;-57
2021/05/19 11:25:05;;;;;;;3.10;1.20;;;;;;;;;;5088210;28;20495;-57
2021/05/19 11:27:38;;;;;;;7.70;1.60;;;;;;;;;;5095889;28;20460;-61
2021/05/19 11:30:25;;;;;;;6.47;2.07;;;;;;;;;;5088172;28;20460;-58
2021/05/19 11:33:09;;;;;;;6.43;1.53;;;;;;;;;;5084696;28;20509;-62
2021/05/19 11:35:38;;;;;;;4.23;1.70;;;;;;;;;;5097409;28;20452;-55
2021/05/19 11:38:05;;;;;;;7.90;2.03;;;;;;;;;;5115130;28;20471;-59
2021/05/19 11:40:45;;;;;;;7.90;2.10;;;;;;;;;;5107549;28;20448;-63
2021/05/19 11:43:17;;;;;;;4.87;1.80;;;;;;;;;;5094343;28;20620;-55
2021/05/19 11:45:44;;;;;;;6.73;2.20;;;;;;;;;;5094696;28;20466;-56
2021/05/19 11:48:20;;;;;;;3.80;1.50;;;;;;;;;;5095000;28;20943;-64
2021/05/19 11:50:55;;;;;;;5.30;1.30;;;;;;;;;;5095008;28;20470;-51
2021/05/19 11:53:24;;;;;;;5.40;1.30;;;;;;;;;;5094807;28;20455;-56
2021/05/19 11:55:53;;;;;;;5.13;2.17;;;;;;;;;;5095688;28;20425;-56
2021/05/19 11:58:21;;;;;;;5.53;1.40;;;;;;;;;;5094590;28;20467;-55
2021/05/19 12:00:50;;;;;;;4.40;1.63;;;;;;;;;;5094683;28;20456;-59
2021/05/19 12:03:36;;;;;;;2.93;1.43;;;;;;;;;;5094195;28;20471;-61
2021/05/19 12:06:05;;;;;;;3.80;1.20;;;;;;;;;;5077139;28;20452;-62
2021/05/19 12:08:37;;;;;;;5.70;1.70;;;;;;;;;;5093863;28;20451;-53
2021/05/19 12:11:12;;;;;;;6.40;1.57;;;;;;;;;;5087977;28;20468;-63
2021/05/19 12:13:41;;;;;;;4.33;1.17;;;;;;;;;;5065158;28;20452;-59
2021/05/19 12:16:10;;;;;;;2.70;1.00;;;;;;;;;;5095614;28;20448;-59
2021/05/19 12:18:38;;;;;;;5.60;1.30;;;;;;;;;;5094590;28;20468;-57
2021/05/19 12:21:09;;;;;;;2.73;1.03;;;;;;;;;;5094107;28;20483;-54
2021/05/19 12:23:37;;;;;;;2.53;0.80;;;;;;;;;;5094188;28;20558;-58
2021/05/19 12:26:04;;;;;;;6.30;1.40;;;;;;;;;;5093968;28;20482;-53
2021/05/19 12:28:31;;;;;;;2.47;0.77;;;;;;;;;;5094595;28;20440;-58
2021/05/19 12:34:14;;;;;;;2.40;0.87;;;;;;;;;;5096281;28;20442;-53
2021/05/19 12:36:42;;;;;;;3.83;1.67;;;;;;;;;;5094293;28;20456;-57
2021/05/19 12:41:59;;;;;;;2.23;0.80;;;;;;;;;;5073563;28;20476;-54
2021/05/19 12:44:32;;;;;;;4.30;1.50;;;;;;;;;;5086549;28;20460;-55
2021/05/19 12:47:09;;;;;;;2.83;0.80;;;;;;;;;;5090999;28;20447;-55
2021/05/19 12:49:40;;;;;;;4.77;1.20;;;;;;;;;;5095287;28;20428;-61
2021/05/19 12:52:31;;;;;;;3.07;1.00;;;;;;;;;;5095562;28;20456;-57
2021/05/19 12:54:59;;;;;;;2.60;0.80;;;;;;;;;;5094611;28;20451;-57
2021/05/19 12:57:27;;;;;;;2.10;0.80;;;;;;;;;;5094585;28;20448;-59
2021/05/19 12:59:58;;;;;;;2.40;1.03;;;;;;;;;;5093171;28;20468;-55
2021/05/19 13:02:26;;;;;;;2.50;1.10;;;;;;;;;;5093937;28;20486;-60
2021/05/19 13:05:09;;;;;;;4.20;1.57;;;;;;;;;;5094581;28;20448;-57
2021/05/19 13:07:43;;;;;;;3.70;1.53;;;;;;;;;;5094470;28;20459;-57
2021/05/19 13:10:18;;;;;;;2.00;0.70;;;;;;;;;;5094775;28;20783;-51
2021/05/19 13:12:55;;;;;;;2.63;1.00;;;;;;;;;;5094242;28;20699;-54
2021/05/19 13:15:38;;;;;;;6.90;1.97;;;;;;;;;;5094442;28;20455;-60
2021/05/19 13:18:10;;;;;;;4.40;1.10;;;;;;;;;;5095133;28;20452;-49
2021/05/19 13:21:08;;;;;;;5.10;1.20;;;;;;;;;;5094609;28;20460;-56
2021/05/19 13:23:41;;;;;;;4.53;1.20;;;;;;;;;;5092152;28;20516;-55
2021/05/19 13:26:15;;;;;;;4.10;1.50;;;;;;;;;;5099414;28;20464;-60
2021/05/19 13:28:43;;;;;;;11.20;2.00;;;;;;;;;;5081442;28;20450;-57
2021/05/19 13:31:13;;;;;;;5.60;1.43;;;;;;;;;;5094982;28;20460;-55
2021/05/19 13:33:58;;;;;;;6.73;2.50;;;;;;;;;;5095024;28;20460;-56
2021/05/19 13:39:18;;;;;;;5.30;0.90;;;;;;;;;;5091669;28;20442;-58
2021/05/19 13:41:47;;;;;;;5.33;1.40;;;;;;;;;;5098124;28;20471;-59
2021/05/19 13:44:14;;;;;;;5.33;1.00;;;;;;;;;;5097622;28;20447;-57
2021/05/19 13:46:52;;;;;;;2.77;1.00;;;;;;;;;;5098878;28;20425;-57
2021/05/19 13:49:24;;;;;;;2.10;1.00;;;;;;;;;;5098635;28;20490;-61
2021/05/19 13:51:52;;;;;;;3.63;1.17;;;;;;;;;;5098005;28;20440;-59
2021/05/19 13:54:32;;;;;;;3.73;1.23;;;;;;;;;;5098630;28;20497;-60
2021/05/19 13:56:59;;;;;;;4.10;1.30;;;;;;;;;;5098317;28;20554;-57
2021/05/19 13:59:26;;;;;;;4.83;1.00;;;;;;;;;;5097974;28;20464;-61
2021/05/19 14:02:05;;;;;;;3.70;1.17;;;;;;;;;;5097904;28;20452;-54
2021/05/19 14:04:32;;;;;;;2.77;1.00;;;;;;;;;;5097418;28;20553;-54
2021/05/19 14:06:59;;;;;;;2.67;0.90;;;;;;;;;;5097660;28;20451;-56
2021/05/19 14:09:34;;;;;;;3.37;0.83;;;;;;;;;;5096855;28;20456;-56
2021/05/19 14:12:04;;;;;;;2.40;1.30;;;;;;;;;;5106122;28;20446;-57
2021/05/19 14:14:40;;;;;;;2.90;1.00;;;;;;;;;;5097521;28;20501;-62
2021/05/19 14:17:18;;;;;;;1.80;0.70;;;;;;;;;;5080616;28;20558;-57
2021/05/19 14:28:52;;;;;;;4.10;1.97;;;;;;;;;;5098553;28;20473;-56
2021/05/19 14:31:21;;;;;;;3.13;1.40;;;;;;;;;;5097562;28;20460;-53
2021/05/19 14:37:11;;;;;;;2.93;0.90;;;;;;;;;;5097863;28;20446;-54
2021/05/19 14:59:59;;;;;;;3.10;1.10;;;;;;;;;;5077744;28;20576;-59
2021/05/19 15:02:44;;;;;;;2.83;0.90;;;;;;;;;;5086790;28;20480;-58
2021/05/19 15:05:20;;;;;;;9.70;2.50;;;;;;;;;;5078605;28;20545;-59
2021/05/19 15:07:47;;;;;;;2.40;1.07;;;;;;;;;;5093759;28;20449;-55
2021/05/19 15:10:15;;;;;;;3.50;1.27;;;;;;;;;;5076844;28;20456;-54
2021/05/19 15:12:53;;;;;;;2.63;1.20;;;;;;;;;;5091040;28;20488;-57
2021/05/19 15:15:20;;;;;;;3.20;1.60;;;;;;;;;;5095129;28;20542;-61
2021/05/19 15:17:47;;;;;;;8.90;1.90;;;;;;;;;;5095022;28;20471;-62
2021/05/19 15:20:15;;;;;;;4.67;1.33;;;;;;;;;;5096143;28;20468;-57
2021/05/19 15:23:02;;;;;;;5.37;1.20;;;;;;;;;;5082998;28;20650;-55
2021/05/19 15:25:52;;;;;;;4.17;1.70;;;;;;;;;;5087638;28;20456;-59
2021/05/19 15:28:23;;;;;;;4.20;1.60;;;;;;;;;;5093889;28;20496;-60
2021/05/19 15:31:11;;;;;;;4.40;1.47;;;;;;;;;;5095585;28;20437;-60
2021/05/19 15:33:56;;;;;;;5.50;2.27;;;;;;;;;;5097393;28;20436;-55
2021/05/19 15:36:32;;;;;;;4.13;1.93;;;;;;;;;;5096037;28;20475;-58
2021/05/19 15:39:16;;;;;;;4.73;2.03;;;;;;;;;;5095666;28;20452;-59
2021/05/19 15:41:46;;;;;;;5.50;2.40;;;;;;;;;;5095576;28;20517;-56
2021/05/19 15:44:16;;;;;;;7.30;3.20;;;;;;;;;;5096002;28;20467;-59
2021/05/19 15:49:46;;;;;;;4.80;2.33;;;;;;;;;;5093184;28;20481;-59
2021/05/19 15:52:14;;;;;;;7.50;2.80;;;;;;;;;;5094897;28;20456;-57
2021/05/19 15:54:45;;;;;;;7.93;2.50;;;;;;;;;;5099976;28;20451;-59
2021/05/19 15:57:12;;;;;;;4.87;2.60;;;;;;;;;;5088817;28;20480;-59
2021/05/19 15:59:44;;;;;;;9.83;2.60;;;;;;;;;;5095372;28;20518;-58
2021/05/19 16:02:29;;;;;;;4.60;2.10;;;;;;;;;;5095187;28;20492;-62